Time;durP1;ratioP1;P1;durP2;ratioP2;P2;SDS_P1;SDS_P2;PMS_P1;PMS_P2;Temp;Humidity;BMP_temperature;BMP_pressure;BME280_temperature;BME280_humidity;BME280_pressure;Samples;Min_cycle;Max_cycle;Signal;HPM_P1;HPM_P2
2022/01/24 00:00:07;;;;;;;25.60;14.73;;;6.30;93.10;;;;;;2079805;28;20052;-88
2022/01/24 00:01:09;;;;;;;24.48;15.05;;;6.30;93.10;;;;;;2081758;28;20511;-88
2022/01/24 00:02:09;;;;;;;24.08;14.57;;;6.30;93.10;;;;;;2080492;28;20037;-88
2022/01/24 00:03:10;;;;;;;24.90;15.20;;;6.30;93.10;;;;;;2088670;28;20376;-89
2022/01/24 00:04:12;;;;;;;25.05;15.32;;;6.30;93.10;;;;;;2080188;28;20049;-89
2022/01/24 00:05:13;;;;;;;25.65;15.32;;;6.30;93.10;;;;;;2075111;28;20044;-88
2022/01/24 00:06:16;;;;;;;24.52;15.07;;;6.30;93.10;;;;;;2086789;28;20043;-88
2022/01/24 00:07:20;;;;;;;24.02;15.02;;;6.30;93.10;;;;;;2076007;28;20569;-88
2022/01/24 00:08:21;;;;;;;25.95;15.77;;;6.30;93.10;;;;;;2095325;28;21365;-87
2022/01/24 00:09:22;;;;;;;25.98;15.95;;;6.30;93.30;;;;;;2102413;28;20081;-88
2022/01/24 00:10:25;;;;;;;27.30;16.10;;;6.30;93.10;;;;;;2097871;28;20123;-88
2022/01/24 00:11:38;;;;;;;26.30;16.33;;;6.30;93.10;;;;;;2105522;28;20090;-88
2022/01/24 00:15:19;;;;;;;25.38;16.17;;;6.30;93.10;;;;;;2091111;28;20555;-88
2022/01/24 00:26:46;;;;;;;25.67;16.08;;;6.30;93.00;;;;;;2081215;28;20053;-88
2022/01/24 00:27:47;;;;;;;25.45;15.25;;;6.30;93.00;;;;;;2083777;28;20087;-88
2022/01/24 00:28:48;;;;;;;24.58;15.48;;;6.30;93.00;;;;;;2090249;28;20091;-88
2022/01/24 00:29:48;;;;;;;26.13;15.95;;;6.30;93.00;;;;;;2081772;28;20045;-89
2022/01/24 00:30:50;;;;;;;24.38;15.07;;;6.30;93.00;;;;;;2075742;28;20037;-88
2022/01/24 00:31:51;;;;;;;24.30;15.85;;;6.20;93.00;;;;;;2079793;28;20082;-88
2022/01/24 00:32:52;;;;;;;26.45;16.35;;;6.30;93.00;;;;;;2081261;28;20080;-88
2022/01/24 00:33:53;;;;;;;24.67;15.55;;;6.30;93.00;;;;;;2079711;28;20057;-88
2022/01/24 00:34:53;;;;;;;25.67;16.35;;;6.30;92.90;;;;;;2089476;28;20423;-88
2022/01/24 00:35:54;;;;;;;26.08;15.50;;;6.30;92.90;;;;;;2088759;28;20076;-88
2022/01/24 00:36:54;;;;;;;24.23;15.40;;;6.30;92.90;;;;;;2086227;28;20037;-88
2022/01/24 00:37:59;;;;;;;27.08;16.58;;;6.30;92.90;;;;;;2087567;28;20040;-88
2022/01/24 00:39:00;;;;;;;26.55;15.82;;;6.30;92.90;;;;;;2089457;28;20040;-88
2022/01/24 00:40:02;;;;;;;25.15;15.98;;;6.20;92.90;;;;;;2077723;28;20407;-88
2022/01/24 00:41:04;;;;;;;25.10;15.70;;;6.30;92.90;;;;;;2069584;28;20101;-88
2022/01/24 00:42:29;;;;;;;24.95;15.98;;;6.30;92.90;;;;;;2080723;28;20038;-88
2022/01/24 00:43:52;;;;;;;24.55;15.15;;;6.20;92.90;;;;;;2085134;28;20044;-88
2022/01/24 00:45:04;;;;;;;24.80;15.00;;;6.20;92.90;;;;;;2093254;28;20375;-88
2022/01/24 00:46:15;;;;;;;24.70;14.63;;;6.20;92.90;;;;;;2088495;28;20087;-88
2022/01/24 00:48:08;;;;;;;23.63;14.55;;;6.20;92.90;;;;;;2092880;28;20036;-88
2022/01/24 00:49:45;;;;;;;22.42;14.18;;;6.20;92.80;;;;;;2090120;28;20033;-88
2022/01/24 00:54:54;;;;;;;19.70;13.23;;;6.20;92.80;;;;;;2091542;28;20025;-87
2022/01/24 00:55:54;;;;;;;19.10;12.90;;;6.20;92.70;;;;;;2089122;28;20025;-88
2022/01/24 00:56:55;;;;;;;21.58;13.52;;;6.20;93.00;;;;;;2089017;28;20041;-88
2022/01/24 00:57:55;;;;;;;19.65;13.18;;;6.20;93.00;;;;;;2094469;28;20055;-88
2022/01/24 00:58:56;;;;;;;20.65;13.23;;;6.20;92.70;;;;;;2103446;28;20032;-89
2022/01/24 00:59:57;;;;;;;19.50;12.55;;;6.20;92.70;;;;;;2101558;28;20037;-89
2022/01/24 01:00:58;;;;;;;21.90;13.50;;;6.20;92.70;;;;;;2095863;28;20041;-89
2022/01/24 01:01:58;;;;;;;19.90;12.95;;;6.20;92.70;;;;;;2104637;28;20040;-88
2022/01/24 01:02:59;;;;;;;18.52;12.82;;;6.20;92.70;;;;;;2096746;28;20076;-88
2022/01/24 01:04:00;;;;;;;20.30;13.45;;;6.20;92.70;;;;;;2087240;28;20037;-88
2022/01/24 01:05:13;;;;;;;19.25;12.50;;;6.20;92.70;;;;;;2098065;28;20461;-89
2022/01/24 01:06:15;;;;;;;20.33;13.20;;;6.20;92.70;;;;;;2087134;28;20517;-89
2022/01/24 01:18:14;;;;;;;17.75;11.82;;;6.10;92.50;;;;;;2095067;28;20052;-88
2022/01/24 01:19:14;;;;;;;17.83;10.88;;;6.10;92.50;;;;;;2092873;28;20048;-88
2022/01/24 01:20:20;;;;;;;16.23;10.85;;;6.10;92.50;;;;;;2087619;28;20049;-88
2022/01/24 01:21:21;;;;;;;15.35;10.30;;;6.10;92.40;;;;;;2084705;28;20120;-88
2022/01/24 01:22:22;;;;;;;14.95;9.85;;;6.10;92.40;;;;;;2097503;28;20045;-88
2022/01/24 01:23:23;;;;;;;14.98;10.13;;;6.10;92.40;;;;;;2088551;28;20033;-88
2022/01/24 01:24:26;;;;;;;14.35;9.70;;;6.10;92.40;;;;;;2080816;28;20100;-88
2022/01/24 01:25:26;;;;;;;13.57;9.68;;;6.10;92.40;;;;;;2092299;28;20044;-88
2022/01/24 01:27:37;;;;;;;14.75;9.60;;;6.10;92.30;;;;;;2091019;28;20029;-88
2022/01/24 01:28:41;;;;;;;14.13;9.30;;;6.10;92.30;;;;;;2095627;28;20040;-88
2022/01/24 01:29:57;;;;;;;15.00;10.38;;;6.10;92.30;;;;;;2105770;28;20440;-89
2022/01/24 01:31:03;;;;;;;14.80;10.40;;;6.10;92.30;;;;;;2103475;28;20047;-88
2022/01/24 01:32:14;;;;;;;14.25;10.38;;;6.10;92.30;;;;;;2091251;28;20479;-88
2022/01/24 01:36:37;;;;;;;15.20;10.82;;;6.10;92.20;;;;;;2089032;28;20044;-88
2022/01/24 01:56:07;;;;;;;12.68;8.88;;;6.00;92.10;;;;;;2100018;28;20028;-88
2022/01/24 01:57:12;;;;;;;11.48;8.55;;;6.00;92.10;;;;;;2106419;28;20035;-88
2022/01/24 01:58:23;;;;;;;12.57;8.05;;;6.10;92.10;;;;;;2098488;28;20064;-88
2022/01/24 01:59:23;;;;;;;12.18;8.82;;;6.00;92.10;;;;;;2087394;28;20060;-87
2022/01/24 02:00:24;;;;;;;13.30;8.98;;;6.00;92.00;;;;;;2075758;28;20108;-88
2022/01/24 02:01:25;;;;;;;13.63;9.00;;;6.00;92.00;;;;;;2093827;28;20205;-88
2022/01/24 02:02:25;;;;;;;13.93;9.73;;;6.00;92.00;;;;;;2091635;28;20040;-88
2022/01/24 02:03:28;;;;;;;13.38;8.93;;;6.00;92.00;;;;;;2097743;28;20028;-88
2022/01/24 02:04:28;;;;;;;13.02;9.02;;;6.00;92.00;;;;;;2088837;28;20031;-88
2022/01/24 02:05:29;;;;;;;14.30;9.52;;;6.00;92.00;;;;;;2082207;28;20404;-89
2022/01/24 02:06:31;;;;;;;13.00;8.77;;;6.00;91.90;;;;;;2084925;28;20025;-88
2022/01/24 02:07:31;;;;;;;13.68;8.88;;;6.00;91.90;;;;;;2083617;28;20053;-88
2022/01/24 02:08:33;;;;;;;14.75;9.40;;;6.00;91.90;;;;;;2085488;28;20443;-88
2022/01/24 02:09:34;;;;;;;12.90;8.68;;;6.00;91.90;;;;;;2084961;28;20037;-88
2022/01/24 02:10:35;;;;;;;12.18;8.23;;;6.00;91.90;;;;;;2080441;28;20030;-88
2022/01/24 02:11:36;;;;;;;12.50;8.57;;;6.00;91.90;;;;;;2073592;28;20121;-88
2022/01/24 02:12:37;;;;;;;12.50;8.07;;;6.00;91.90;;;;;;2098827;28;20409;-88
2022/01/24 02:13:37;;;;;;;13.25;8.20;;;6.00;91.90;;;;;;2095107;28;20794;-88
2022/01/24 02:14:45;;;;;;;12.70;8.73;;;6.10;91.90;;;;;;2082945;28;20052;-88
2022/01/24 02:16:49;;;;;;;12.40;8.02;;;6.00;91.90;;;;;;2099479;28;20083;-87
2022/01/24 02:18:04;;;;;;;13.70;8.95;;;6.00;91.80;;;;;;2090359;28;20041;-88
2022/01/24 02:21:08;;;;;;;11.55;8.20;;;6.10;91.90;;;;;;2098612;28;20081;-88
2022/01/24 02:21:58;;;;;;;12.32;8.05;;;6.10;91.90;;;;;;2090474;28;20036;-88
2022/01/24 02:24:18;;;;;;;12.25;7.82;;;6.00;91.90;;;;;;2087927;28;20048;-88
2022/01/24 02:25:25;;;;;;;11.90;7.85;;;6.10;92.00;;;;;;2090919;28;20065;-88
2022/01/24 02:26:26;;;;;;;12.18;7.88;;;6.00;91.90;;;;;;2090178;28;20052;-87
2022/01/24 02:27:39;;;;;;;11.95;7.88;;;6.00;91.90;;;;;;2082966;28;20030;-88
2022/01/24 02:28:50;;;;;;;13.18;8.60;;;6.00;91.90;;;;;;2088407;28;20495;-88
2022/01/24 02:31:18;;;;;;;12.23;7.97;;;6.10;92.00;;;;;;2089457;28;20464;-88
2022/01/24 02:32:18;;;;;;;12.20;8.30;;;6.00;91.90;;;;;;2095047;28;20041;-88
2022/01/24 02:33:19;;;;;;;12.95;8.57;;;6.00;91.90;;;;;;2094972;28;20040;-88
2022/01/24 02:34:22;;;;;;;12.55;8.43;;;6.00;91.90;;;;;;2091095;28;20037;-88
2022/01/24 02:35:22;;;;;;;13.80;8.60;;;6.00;91.90;;;;;;2093310;28;20048;-88
2022/01/24 02:36:24;;;;;;;13.18;8.52;;;6.00;91.90;;;;;;2079599;28;20189;-88
2022/01/24 02:37:25;;;;;;;12.65;8.43;;;6.00;91.90;;;;;;2078059;28;20068;-88
2022/01/24 02:38:54;;;;;;;12.65;8.50;;;6.00;91.90;;;;;;2081063;28;20484;-88
2022/01/24 02:40:03;;;;;;;12.82;8.25;;;6.10;91.90;;;;;;2089829;28;20504;-88
2022/01/24 02:49:09;;;;;;;12.52;8.02;;;6.00;91.90;;;;;;2094486;28;20047;-88
2022/01/24 02:50:16;;;;;;;12.55;7.88;;;6.00;91.90;;;;;;2074787;28;20084;-88
2022/01/24 02:52:17;;;;;;;11.88;7.78;;;6.00;92.00;;;;;;2091176;28;20060;-88
2022/01/24 02:53:18;;;;;;;12.60;8.50;;;6.00;92.00;;;;;;2097848;28;20135;-88
2022/01/24 02:54:24;;;;;;;12.73;8.60;;;6.00;92.00;;;;;;2105906;28;20036;-88
2022/01/24 02:55:25;;;;;;;12.15;8.18;;;6.10;92.10;;;;;;2094688;28;20044;-88
2022/01/24 02:56:25;;;;;;;12.75;8.88;;;6.00;92.10;;;;;;2094511;28;20025;-88
2022/01/24 02:57:26;;;;;;;13.13;8.10;;;6.00;92.10;;;;;;2089019;28;20033;-88
2022/01/24 02:58:27;;;;;;;12.00;8.43;;;6.00;92.40;;;;;;2073375;28;20158;-88
2022/01/24 02:59:28;;;;;;;12.75;8.88;;;6.10;92.10;;;;;;2077245;28;20439;-88
2022/01/24 03:00:29;;;;;;;12.52;8.15;;;6.00;92.10;;;;;;2082813;28;20057;-89
2022/01/24 03:01:30;;;;;;;13.10;8.65;;;6.00;92.10;;;;;;2085526;28;20136;-88
2022/01/24 03:02:30;;;;;;;12.68;8.48;;;6.00;92.10;;;;;;2098317;28;20132;-88
2022/01/24 03:03:31;;;;;;;13.15;8.88;;;6.00;92.10;;;;;;2100572;28;20044;-88
2022/01/24 03:04:31;;;;;;;13.23;8.73;;;6.10;92.20;;;;;;2085428;28;20039;-88
2022/01/24 03:05:32;;;;;;;13.02;8.65;;;6.00;92.20;;;;;;2081798;28;20084;-88
2022/01/24 03:06:33;;;;;;;12.80;8.60;;;6.10;92.20;;;;;;2086137;28;20089;-88
2022/01/24 03:07:34;;;;;;;13.98;8.70;;;6.00;92.20;;;;;;2097592;28;20029;-88
2022/01/24 03:08:38;;;;;;;13.18;8.48;;;6.00;92.20;;;;;;2089049;28;20032;-88
2022/01/24 03:09:38;;;;;;;12.63;8.30;;;6.10;92.20;;;;;;2088491;28;20551;-88
2022/01/24 03:10:43;;;;;;;12.57;8.32;;;6.00;92.20;;;;;;2088114;28;20040;-88
2022/01/24 03:12:02;;;;;;;12.73;8.57;;;6.00;92.20;;;;;;2085316;28;20506;-88
2022/01/24 03:13:19;;;;;;;13.60;8.65;;;6.00;92.20;;;;;;2096081;28;20052;-88
2022/01/24 03:14:22;;;;;;;13.32;9.00;;;6.00;92.20;;;;;;2092007;28;20064;-88
2022/01/24 03:15:23;;;;;;;12.77;8.75;;;6.00;92.20;;;;;;2097899;28;20036;-88
2022/01/24 03:16:23;;;;;;;13.80;9.18;;;6.00;92.20;;;;;;2075167;28;20531;-88
2022/01/24 03:17:24;;;;;;;15.55;9.45;;;6.00;92.10;;;;;;2081585;28;20033;-87
2022/01/24 03:18:25;;;;;;;13.23;8.88;;;5.90;92.10;;;;;;2079653;28;20055;-89
2022/01/24 03:19:25;;;;;;;14.27;9.07;;;5.90;92.10;;;;;;2085215;28;20071;-87
2022/01/24 03:20:26;;;;;;;11.80;8.13;;;5.90;92.10;;;;;;2106345;28;20374;-88
2022/01/24 03:21:27;;;;;;;13.18;9.30;;;6.00;92.10;;;;;;2097244;28;20040;-88
2022/01/24 03:22:27;;;;;;;13.93;8.90;;;5.90;92.10;;;;;;2098144;28;20094;-88
2022/01/24 03:23:28;;;;;;;14.40;9.10;;;5.90;92.10;;;;;;2098565;28;20186;-88
2022/01/24 03:24:29;;;;;;;14.25;9.23;;;6.00;92.10;;;;;;2090058;28;20155;-88
2022/01/24 03:25:30;;;;;;;14.57;9.43;;;5.90;92.10;;;;;;2092233;28;20538;-88
2022/01/24 03:26:31;;;;;;;13.68;9.25;;;5.90;92.10;;;;;;2103245;28;20082;-88
2022/01/24 03:27:31;;;;;;;13.13;9.05;;;5.90;92.10;;;;;;2096859;28;20079;-88
2022/01/24 03:28:32;;;;;;;14.23;9.27;;;5.90;92.10;;;;;;2095996;28;20052;-88
2022/01/24 03:29:33;;;;;;;13.32;8.85;;;5.90;92.10;;;;;;2093663;28;20107;-88
2022/01/24 03:30:34;;;;;;;14.98;9.43;;;6.00;92.20;;;;;;2098041;28;20168;-88
2022/01/24 03:31:36;;;;;;;13.98;9.35;;;5.90;92.20;;;;;;2098166;28;20031;-88
2022/01/24 03:32:37;;;;;;;13.85;8.90;;;5.90;92.20;;;;;;2095165;28;20037;-88
2022/01/24 03:33:37;;;;;;;14.73;9.40;;;6.00;92.20;;;;;;2099627;28;20123;-88
2022/01/24 03:34:40;;;;;;;13.95;9.25;;;6.00;92.20;;;;;;2094229;28;20033;-88
2022/01/24 03:35:42;;;;;;;13.00;9.00;;;5.90;92.20;;;;;;2080444;28;20033;-88
2022/01/24 03:36:43;;;;;;;14.32;9.60;;;5.90;92.20;;;;;;2089424;28;20090;-87
2022/01/24 03:37:44;;;;;;;14.48;9.13;;;5.90;92.20;;;;;;2084269;28;20461;-88
2022/01/24 03:38:44;;;;;;;13.18;8.98;;;5.90;92.20;;;;;;2073475;28;20080;-88
2022/01/24 03:39:45;;;;;;;15.27;9.85;;;5.90;92.20;;;;;;2093563;28;20028;-88
2022/01/24 03:40:46;;;;;;;15.05;9.63;;;5.90;92.20;;;;;;2079133;28;20100;-88
2022/01/24 03:41:46;;;;;;;13.95;9.30;;;5.90;92.20;;;;;;2065011;28;20062;-87
2022/01/24 03:42:47;;;;;;;13.82;8.85;;;5.90;92.20;;;;;;2088413;28;20043;-88
2022/01/24 03:43:48;;;;;;;14.00;9.00;;;5.90;92.50;;;;;;2080438;28;20041;-88
2022/01/24 03:44:55;;;;;;;15.95;10.45;;;5.90;92.20;;;;;;2084711;28;20037;-88
2022/01/24 03:47:30;;;;;;;14.43;9.52;;;5.90;92.20;;;;;;2097294;28;20037;-88
2022/01/24 03:49:48;;;;;;;15.35;9.52;;;5.90;92.30;;;;;;2091817;28;20127;-88
2022/01/24 03:50:49;;;;;;;13.48;8.77;;;5.90;92.30;;;;;;2096046;28;20043;-88
2022/01/24 03:51:50;;;;;;;14.95;9.20;;;5.80;92.20;;;;;;2091220;28;20061;-88
2022/01/24 03:52:51;;;;;;;13.93;9.40;;;5.90;92.30;;;;;;2082413;28;20062;-88
2022/01/24 03:53:51;;;;;;;14.25;9.18;;;5.90;92.20;;;;;;2082849;28;20056;-88
2022/01/24 03:54:52;;;;;;;14.25;9.90;;;5.90;92.50;;;;;;2098252;28;20041;-87
2022/01/24 03:55:53;;;;;;;14.68;9.55;;;5.90;92.20;;;;;;2092379;28;20040;-88
2022/01/24 03:56:55;;;;;;;14.05;9.55;;;5.90;92.20;;;;;;2094705;28;20101;-87
2022/01/24 03:57:55;;;;;;;15.32;9.73;;;5.80;92.20;;;;;;2096718;28;20537;-88
2022/01/24 03:58:56;;;;;;;13.93;9.27;;;5.80;92.20;;;;;;2090831;28;20037;-88
2022/01/24 03:59:56;;;;;;;14.13;9.52;;;5.90;92.20;;;;;;2091833;28;20094;-88
2022/01/24 04:00:58;;;;;;;14.02;9.60;;;5.80;92.20;;;;;;2086910;28;20045;-88
2022/01/24 04:01:59;;;;;;;13.90;9.55;;;5.90;92.30;;;;;;2081286;28;20116;-88
2022/01/24 04:03:00;;;;;;;13.27;8.95;;;5.90;92.30;;;;;;2097614;28;20058;-88
2022/01/24 04:04:00;;;;;;;13.88;9.30;;;5.90;92.30;;;;;;2091960;28;20491;-88
2022/01/24 04:05:01;;;;;;;13.75;9.75;;;5.90;92.40;;;;;;2089083;28;20458;-88
2022/01/24 04:06:03;;;;;;;14.60;9.60;;;5.80;92.30;;;;;;2098118;28;20040;-88
2022/01/24 04:07:04;;;;;;;13.45;9.27;;;5.90;92.30;;;;;;2098123;28;20043;-87
2022/01/24 04:08:05;;;;;;;13.27;9.35;;;5.90;92.30;;;;;;2092967;28;20064;-87
2022/01/24 04:09:05;;;;;;;15.07;9.70;;;5.80;92.30;;;;;;2096031;28;20087;-87
2022/01/24 04:10:07;;;;;;;13.95;9.75;;;5.90;92.30;;;;;;2098263;28;20123;-88
2022/01/24 04:11:12;;;;;;;15.98;9.52;;;5.90;92.40;;;;;;2097348;28;20410;-88
2022/01/24 04:12:13;;;;;;;14.95;9.77;;;5.90;92.40;;;;;;2090061;28;20471;-88
2022/01/24 04:13:26;;;;;;;14.20;9.27;;;5.80;92.40;;;;;;2091103;28;20029;-87
2022/01/24 04:14:39;;;;;;;13.90;9.68;;;5.80;92.40;;;;;;2091554;28;20040;-88
2022/01/24 04:15:46;;;;;;;13.00;8.70;;;5.80;92.40;;;;;;2094618;28;20381;-88
2022/01/24 04:16:53;;;;;;;14.50;9.07;;;5.80;92.40;;;;;;2099588;28;20478;-87
2022/01/24 04:18:12;;;;;;;14.32;9.50;;;5.80;92.40;;;;;;2099803;28;20048;-88
2022/01/24 04:21:18;;;;;;;13.50;9.00;;;5.80;92.40;;;;;;2096624;28;20479;-88
2022/01/24 04:21:54;;;;;;;12.80;8.32;;;5.80;92.40;;;;;;2097629;28;20473;-88
2022/01/24 04:22:57;;;;;;;14.32;9.13;;;5.80;92.30;;;;;;2089331;28;20033;-88
2022/01/24 04:24:04;;;;;;;14.63;8.77;;;5.80;92.30;;;;;;2075198;28;20042;-88
2022/01/24 04:25:06;;;;;;;13.23;8.82;;;5.80;92.40;;;;;;2085210;28;20116;-88
2022/01/24 04:26:07;;;;;;;12.90;8.55;;;5.80;92.40;;;;;;2090010;28;20044;-88
2022/01/24 04:27:09;;;;;;;13.00;8.88;;;5.80;92.40;;;;;;2091315;28;20124;-88
2022/01/24 04:28:10;;;;;;;13.50;8.57;;;5.80;92.40;;;;;;2072330;28;20039;-88
2022/01/24 04:29:11;;;;;;;13.68;8.60;;;5.80;92.40;;;;;;2069837;28;20034;-88
2022/01/24 04:30:11;;;;;;;14.77;9.57;;;5.80;92.40;;;;;;2084389;28;20039;-88
2022/01/24 04:31:12;;;;;;;16.50;9.50;;;5.70;92.30;;;;;;2089390;28;20033;-88
2022/01/24 04:32:13;;;;;;;14.52;9.35;;;5.80;92.40;;;;;;2081144;28;20072;-88
2022/01/24 04:33:13;;;;;;;13.13;8.60;;;5.80;92.30;;;;;;2072883;28;20120;-87
2022/01/24 04:34:14;;;;;;;14.00;9.23;;;5.80;92.30;;;;;;2079905;28;20033;-88
2022/01/24 04:35:15;;;;;;;13.20;8.85;;;5.80;92.30;;;;;;2082915;28;20045;-87
2022/01/24 04:36:17;;;;;;;14.85;9.60;;;5.80;92.30;;;;;;2090025;28;20033;-88
2022/01/24 04:37:17;;;;;;;15.55;9.75;;;5.80;92.30;;;;;;2092127;28;20040;-88
2022/01/24 04:38:18;;;;;;;13.82;9.27;;;5.80;92.30;;;;;;2096938;28;20032;-88
2022/01/24 04:39:19;;;;;;;13.68;9.30;;;5.80;92.30;;;;;;2095321;28;20440;-88
2022/01/24 04:40:20;;;;;;;14.27;10.13;;;5.80;92.30;;;;;;2096727;28;20053;-88
2022/01/24 04:41:35;;;;;;;14.00;9.70;;;5.80;92.30;;;;;;2088500;28;20065;-88
2022/01/24 04:42:50;;;;;;;14.18;9.07;;;5.80;92.20;;;;;;2090191;28;20187;-87
2022/01/24 04:45:26;;;;;;;14.02;9.52;;;5.80;92.20;;;;;;2093603;28;20459;-88
2022/01/24 04:47:37;;;;;;;15.80;9.52;;;5.80;92.20;;;;;;2100491;28;20036;-88
2022/01/24 04:51:49;;;;;;;14.70;9.27;;;5.80;92.20;;;;;;2092670;28;20037;-88
2022/01/24 04:52:59;;;;;;;14.40;8.77;;;5.80;92.20;;;;;;2081616;28;20057;-88
2022/01/24 04:55:09;;;;;;;13.13;8.75;;;5.80;92.50;;;;;;2097553;28;20052;-87
2022/01/24 04:56:10;;;;;;;13.65;9.05;;;5.70;92.20;;;;;;2101576;28;20043;-87
2022/01/24 04:57:23;;;;;;;13.10;8.98;;;5.80;92.20;;;;;;2088375;28;20056;-87
2022/01/24 04:58:24;;;;;;;12.82;8.30;;;5.80;92.20;;;;;;2086307;28;20032;-88
2022/01/24 04:59:25;;;;;;;13.45;8.55;;;5.80;92.20;;;;;;2088000;28;20503;-88
2022/01/24 05:00:25;;;;;;;15.55;9.30;;;5.80;92.20;;;;;;2088011;28;20503;-88
2022/01/24 05:01:26;;;;;;;14.05;9.10;;;5.80;92.20;;;;;;2089324;28;20127;-88
2022/01/24 05:02:27;;;;;;;14.45;9.13;;;5.80;92.20;;;;;;2081010;28;20092;-88
2022/01/24 05:03:28;;;;;;;14.68;9.07;;;5.80;92.50;;;;;;2090748;28;20039;-89
2022/01/24 05:04:29;;;;;;;15.10;9.25;;;5.80;92.20;;;;;;2093978;28;20039;-88
2022/01/24 05:05:30;;;;;;;13.63;9.07;;;5.70;92.20;;;;;;2088120;28;20341;-88
2022/01/24 05:06:31;;;;;;;14.75;9.40;;;5.70;92.20;;;;;;2089238;28;20033;-88
2022/01/24 05:07:32;;;;;;;14.88;9.77;;;5.80;92.20;;;;;;2095515;28;20052;-87
2022/01/24 05:08:32;;;;;;;13.60;9.00;;;5.80;92.20;;;;;;2087167;28;20076;-88
2022/01/24 05:09:46;;;;;;;15.13;9.88;;;5.80;92.20;;;;;;2080503;28;20037;-88
2022/01/24 05:12:27;;;;;;;14.93;9.25;;;5.70;92.20;;;;;;2083977;28;20047;-88
2022/01/24 05:21:40;;;;;;;14.23;9.10;;;5.70;92.10;;;;;;2093573;28;20044;-88
2022/01/24 05:24:00;;;;;;;14.60;9.07;;;5.70;92.10;;;;;;2099522;28;20101;-88
2022/01/24 05:25:01;;;;;;;14.57;9.05;;;5.70;92.10;;;;;;2100163;28;20029;-87
2022/01/24 05:26:05;;;;;;;14.35;9.20;;;5.70;92.10;;;;;;2093064;28;20036;-88
2022/01/24 05:27:07;;;;;;;14.40;9.38;;;5.70;92.40;;;;;;2090993;28;20045;-92
2022/01/24 05:28:07;;;;;;;15.60;9.55;;;5.70;92.20;;;;;;2097955;28;20131;-88
2022/01/24 05:29:08;;;;;;;14.13;9.02;;;5.70;92.20;;;;;;2098485;28;20051;-88
2022/01/24 05:30:09;;;;;;;14.13;9.23;;;5.70;92.20;;;;;;2099778;28;20513;-89
2022/01/24 05:31:10;;;;;;;14.50;9.65;;;5.70;92.20;;;;;;2099037;28;20501;-88
2022/01/24 05:32:11;;;;;;;15.05;9.27;;;5.70;92.20;;;;;;2091959;28;20029;-88
2022/01/24 05:33:11;;;;;;;15.65;9.68;;;5.70;92.20;;;;;;2097383;28;20499;-88
2022/01/24 05:34:12;;;;;;;15.10;9.30;;;5.60;92.20;;;;;;2090270;28;20037;-88
2022/01/24 05:35:13;;;;;;;15.10;9.95;;;5.70;92.20;;;;;;2089450;28;20052;-88
2022/01/24 05:36:13;;;;;;;14.57;9.70;;;5.70;92.20;;;;;;2094787;28;20030;-89
2022/01/24 05:37:14;;;;;;;16.05;9.85;;;5.60;92.10;;;;;;2093407;28;20052;-88
2022/01/24 05:38:15;;;;;;;16.35;10.32;;;5.70;92.20;;;;;;2093760;28;20124;-88
2022/01/24 05:39:15;;;;;;;14.52;9.57;;;5.60;92.20;;;;;;2099122;28;20406;-88
2022/01/24 05:40:16;;;;;;;12.95;9.23;;;5.70;92.20;;;;;;2103730;28;20055;-89
2022/01/24 05:41:17;;;;;;;15.43;10.27;;;5.70;92.20;;;;;;2099187;28;20040;-90
2022/01/24 05:42:21;;;;;;;14.88;9.68;;;5.70;92.20;;;;;;2091662;28;20040;-88
2022/01/24 05:43:22;;;;;;;13.82;9.35;;;5.70;92.20;;;;;;2086104;28;20057;-88
2022/01/24 05:44:22;;;;;;;15.20;9.80;;;5.60;92.20;;;;;;2082931;28;20037;-88
2022/01/24 05:45:23;;;;;;;14.07;9.75;;;5.70;92.20;;;;;;2086499;28;20087;-87
2022/01/24 05:46:24;;;;;;;13.63;8.85;;;5.70;92.20;;;;;;2073942;28;20093;-87
2022/01/24 05:47:25;;;;;;;13.00;9.13;;;5.70;92.20;;;;;;2090509;28;20051;-88
2022/01/24 05:48:25;;;;;;;15.73;9.60;;;5.60;92.20;;;;;;2093078;28;20127;-87
2022/01/24 05:49:26;;;;;;;15.55;10.35;;;5.60;92.20;;;;;;2083203;28;20119;-87
2022/01/24 05:50:27;;;;;;;14.00;9.82;;;5.60;92.10;;;;;;2098903;28;20045;-87
2022/01/24 05:51:28;;;;;;;14.23;9.60;;;5.60;92.20;;;;;;2098635;28;20025;-89
2022/01/24 05:52:29;;;;;;;14.77;9.30;;;5.60;92.10;;;;;;2087763;28;20124;-87
2022/01/24 05:53:30;;;;;;;13.55;9.50;;;5.60;92.10;;;;;;2087217;28;20029;-89
2022/01/24 05:54:31;;;;;;;14.88;9.73;;;5.60;92.10;;;;;;2082291;28;20041;-88
2022/01/24 05:55:33;;;;;;;15.10;9.90;;;5.60;92.10;;;;;;2073541;28;20030;-88
2022/01/24 05:56:34;;;;;;;14.82;9.98;;;5.60;92.10;;;;;;2081725;28;20779;-89
2022/01/24 05:57:36;;;;;;;13.80;9.45;;;5.60;92.10;;;;;;2087327;28;20033;-88
2022/01/24 05:58:36;;;;;;;15.35;9.70;;;5.60;92.10;;;;;;2086557;28;20029;-88
2022/01/24 05:59:38;;;;;;;14.50;10.00;;;5.60;92.10;;;;;;2097445;28;20029;-87
2022/01/24 06:00:38;;;;;;;14.68;9.88;;;5.60;92.10;;;;;;2088720;28;20064;-89
2022/01/24 06:01:39;;;;;;;15.38;10.18;;;5.60;92.10;;;;;;2082242;28;20037;-88
2022/01/24 06:02:40;;;;;;;13.57;9.73;;;5.60;92.10;;;;;;2084665;28;20491;-88
2022/01/24 06:03:41;;;;;;;16.42;10.65;;;5.60;92.10;;;;;;2074135;28;20436;-88
2022/01/24 06:04:42;;;;;;;14.55;9.85;;;5.60;92.40;;;;;;2080910;28;20029;-89
2022/01/24 06:05:42;;;;;;;15.23;10.27;;;5.50;92.10;;;;;;2081326;28;20048;-92
2022/01/24 06:06:43;;;;;;;14.35;9.93;;;5.60;92.40;;;;;;2082032;28;20416;-83
2022/01/24 06:07:44;;;;;;;14.90;9.68;;;5.50;92.10;;;;;;2074584;28;20049;-87
2022/01/24 06:08:44;;;;;;;16.80;10.07;;;5.60;92.10;;;;;;2082019;28;20044;-88
2022/01/24 06:09:45;;;;;;;15.00;9.80;;;5.50;92.10;;;;;;2065764;28;20054;-88
2022/01/24 06:10:47;;;;;;;15.23;10.38;;;5.50;92.10;;;;;;2073843;28;20038;-88
2022/01/24 06:11:48;;;;;;;15.27;9.50;;;5.50;92.10;;;;;;2091426;28;20130;-87
2022/01/24 06:12:48;;;;;;;14.57;9.55;;;5.50;92.10;;;;;;2098483;28;20486;-87
2022/01/24 06:13:51;;;;;;;14.77;10.10;;;5.50;92.10;;;;;;2090808;28;20071;-87
2022/01/24 06:14:51;;;;;;;14.02;9.55;;;5.50;92.10;;;;;;2083012;28;20064;-88
2022/01/24 06:15:52;;;;;;;14.15;9.27;;;5.50;92.10;;;;;;2098695;28;20526;-87
2022/01/24 06:16:53;;;;;;;15.95;10.00;;;5.50;92.10;;;;;;2098556;28;20032;-88
2022/01/24 06:17:54;;;;;;;13.90;9.52;;;5.50;92.40;;;;;;2089614;28;20037;-88
2022/01/24 06:18:54;;;;;;;15.32;9.75;;;5.50;92.10;;;;;;2090374;28;20037;-88
2022/01/24 06:19:55;;;;;;;13.77;9.48;;;5.50;92.10;;;;;;2087853;28;20045;-87
2022/01/24 06:20:57;;;;;;;13.90;9.50;;;5.50;92.10;;;;;;2098365;28;20075;-87
2022/01/24 06:21:58;;;;;;;14.60;9.05;;;5.50;92.10;;;;;;2099118;28;20040;-87
2022/01/24 06:22:58;;;;;;;13.60;9.10;;;5.50;92.10;;;;;;2094239;28;20037;-87
2022/01/24 06:23:59;;;;;;;15.27;9.93;;;5.50;92.10;;;;;;2090650;28;20037;-88
2022/01/24 06:25:00;;;;;;;14.15;9.73;;;5.50;92.10;;;;;;2097289;28;20047;-88
2022/01/24 06:26:00;;;;;;;14.48;9.20;;;5.50;92.10;;;;;;2088156;28;20025;-88
2022/01/24 06:27:01;;;;;;;13.23;8.95;;;5.50;92.10;;;;;;2084878;28;20538;-88
2022/01/24 06:28:02;;;;;;;15.38;9.98;;;5.50;92.10;;;;;;2098567;28;20094;-88
2022/01/24 06:29:03;;;;;;;14.07;9.27;;;5.50;92.10;;;;;;2089973;28;20045;-88
2022/01/24 06:30:04;;;;;;;12.95;8.75;;;5.50;92.10;;;;;;2089510;28;20126;-88
2022/01/24 06:31:05;;;;;;;13.82;9.30;;;5.40;92.10;;;;;;2092162;28;20096;-86
2022/01/24 06:32:06;;;;;;;12.98;8.93;;;5.50;92.20;;;;;;2081954;28;20480;-85
2022/01/24 06:33:07;;;;;;;13.65;8.93;;;5.50;92.20;;;;;;2090172;28;20037;-88
2022/01/24 06:34:07;;;;;;;13.45;9.20;;;5.40;92.10;;;;;;2090331;28;20479;-88
2022/01/24 06:35:11;;;;;;;13.55;8.60;;;5.40;92.10;;;;;;2090324;28;20037;-88
2022/01/24 06:36:11;;;;;;;12.80;8.65;;;5.40;92.20;;;;;;2090795;28;20491;-88
2022/01/24 06:37:12;;;;;;;12.80;8.95;;;5.40;92.10;;;;;;2090403;28;20091;-89
2022/01/24 06:38:12;;;;;;;13.32;8.95;;;5.40;92.10;;;;;;2078746;28;20124;-88
2022/01/24 06:39:14;;;;;;;13.32;8.68;;;5.40;92.10;;;;;;2080019;28;20440;-88
2022/01/24 06:40:15;;;;;;;13.18;8.70;;;5.40;92.40;;;;;;2081238;28;20041;-89
2022/01/24 06:41:24;;;;;;;12.38;8.55;;;5.50;92.20;;;;;;2095821;28;20415;-89
2022/01/24 06:42:25;;;;;;;13.02;8.65;;;5.40;92.10;;;;;;2098790;28;20078;-89
2022/01/24 06:43:25;;;;;;;12.75;8.90;;;5.40;92.10;;;;;;2073942;28;20586;-89
2022/01/24 06:44:26;;;;;;;13.45;8.80;;;5.40;92.10;;;;;;2073952;28;20137;-88
2022/01/24 06:45:27;;;;;;;12.05;8.40;;;5.50;92.20;;;;;;2090272;28;20078;-89
2022/01/24 06:46:28;;;;;;;12.15;8.27;;;5.50;92.20;;;;;;2090166;28;20147;-88
2022/01/24 06:47:28;;;;;;;14.00;9.20;;;5.40;92.10;;;;;;2098592;28;20502;-88
2022/01/24 06:48:29;;;;;;;12.23;8.23;;;5.40;92.10;;;;;;2096517;28;20044;-89
2022/01/24 06:49:31;;;;;;;12.73;8.77;;;5.50;92.10;;;;;;2098440;28;20028;-88
2022/01/24 06:50:31;;;;;;;13.52;9.05;;;5.40;92.10;;;;;;2088822;28;20040;-89
2022/01/24 06:51:32;;;;;;;12.05;8.43;;;5.40;92.10;;;;;;2089379;28;20180;-89
2022/01/24 06:52:32;;;;;;;12.90;8.30;;;5.40;92.10;;;;;;2090373;28;20049;-88
2022/01/24 06:53:33;;;;;;;11.05;8.00;;;5.40;92.10;;;;;;2081982;28;20124;-88